createdAt,value
2022-08-05T00:00:50.527Z,20.29
2022-08-05T00:01:50.027Z,20.32
2022-08-05T00:02:51.669Z,20.28
2022-08-05T00:03:49.980Z,20.26
2022-08-05T00:04:55.075Z,20.39
2022-08-05T00:06:04.601Z,20.48
2022-08-05T00:06:51.713Z,20.37
2022-08-05T00:08:00.094Z,20.40
2022-08-05T00:08:50.909Z,20.39
2022-08-05T00:09:49.897Z,20.36
2022-08-05T00:10:49.873Z,20.43
2022-08-05T00:11:56.125Z,20.43
2022-08-05T00:12:56.404Z,20.41
2022-08-05T00:13:53.261Z,20.34
2022-08-05T00:14:51.874Z,20.44
2022-08-05T00:15:56.349Z,20.29
2022-08-05T00:16:52.995Z,20.34
2022-08-05T00:17:49.798Z,20.39
2022-08-05T00:18:49.799Z,20.40
2022-08-05T00:20:02.217Z,20.37
2022-08-05T00:20:50.805Z,20.40
2022-08-05T00:21:49.759Z,20.37
2022-08-05T00:22:57.466Z,20.36
2022-08-05T00:23:53.759Z,20.22
2022-08-05T00:24:55.030Z,20.22
2022-08-05T00:25:49.705Z,20.22
2022-08-05T00:26:51.675Z,20.16
2022-08-05T00:27:49.695Z,20.10
2022-08-05T00:28:49.680Z,20.09
2022-08-05T00:29:49.683Z,20.06
2022-08-05T00:30:52.151Z,20.06
2022-08-05T00:32:10.632Z,20.06
2022-08-05T00:32:50.625Z,20.04
2022-08-05T00:34:55.263Z,19.85
2022-08-05T00:35:04.036Z,19.96
2022-08-05T00:36:16.109Z,19.85
2022-08-05T00:37:11.168Z,19.89
2022-08-05T00:37:52.805Z,19.89
2022-08-05T00:38:49.562Z,19.84
2022-08-05T00:39:57.868Z,19.86
2022-08-05T00:40:53.150Z,19.86
2022-08-05T00:41:55.628Z,19.85
2022-08-05T00:42:50.529Z,19.82
2022-08-05T00:43:50.009Z,19.66
2022-08-05T00:44:49.529Z,19.70
2022-08-05T00:45:49.488Z,19.70
2022-08-05T00:46:53.992Z,19.64
2022-08-05T00:47:56.434Z,19.62
2022-08-05T00:48:50.380Z,19.52
2022-08-05T00:49:51.747Z,19.58
2022-08-05T00:50:49.427Z,19.47
2022-08-05T00:51:50.459Z,19.49
2022-08-05T00:52:49.412Z,19.48
2022-08-05T00:54:02.601Z,19.40
2022-08-05T00:54:50.400Z,19.47
2022-08-05T00:55:49.389Z,19.41
2022-08-05T00:56:51.407Z,19.47
2022-08-05T00:57:58.356Z,19.37
2022-08-05T00:58:50.339Z,19.34
2022-08-05T00:59:49.339Z,19.31
2022-08-05T01:00:50.255Z,19.33
2022-08-05T01:01:49.451Z,19.22
2022-08-05T01:02:50.146Z,19.37
2022-08-05T01:03:49.931Z,19.33
2022-08-05T01:04:50.361Z,19.16
2022-08-05T01:05:49.269Z,19.22
2022-08-05T01:06:49.282Z,19.33
2022-08-05T01:08:30.646Z,19.21
2022-08-05T01:08:50.228Z,19.26
2022-08-05T01:09:55.552Z,19.16
2022-08-05T01:10:52.420Z,19.15
2022-08-05T01:11:49.205Z,19.15
2022-08-05T01:13:12.808Z,19.09
2022-08-05T01:13:59.174Z,19.15
2022-08-05T01:14:50.176Z,19.09
2022-08-05T01:15:49.150Z,19.21
2022-08-05T01:16:49.160Z,19.18
2022-08-05T01:17:53.776Z,19.18
2022-08-05T01:18:56.149Z,19.16
2022-08-05T01:20:00.962Z,19.14
2022-08-05T01:20:50.096Z,19.22
2022-08-05T01:21:50.655Z,19.16
2022-08-05T01:22:49.081Z,19.11
2022-08-05T01:23:52.999Z,19.09
2022-08-05T01:24:49.050Z,19.02
2022-08-05T01:25:53.233Z,19.07
2022-08-05T01:26:49.104Z,18.99
2022-08-05T01:27:55.672Z,19.09
2022-08-05T01:28:50.034Z,19.04
2022-08-05T01:29:48.999Z,19.07
2022-08-05T01:30:50.652Z,19.04
2022-08-05T01:31:49.988Z,19.11
2022-08-05T01:32:48.981Z,19.04
2022-08-05T01:33:53.699Z,18.98
2022-08-05T01:34:49.947Z,18.96
2022-08-05T01:35:51.111Z,18.98
2022-08-05T01:36:48.924Z,19.04
2022-08-05T01:37:48.920Z,19.00
2022-08-05T01:38:49.915Z,19.09
2022-08-05T01:39:48.958Z,18.98
2022-08-05T01:40:48.886Z,18.90
2022-08-05T01:41:48.865Z,18.95
2022-08-05T01:42:48.878Z,18.90
2022-08-05T01:43:48.942Z,18.89
2022-08-05T01:44:54.149Z,18.86
2022-08-05T01:45:56.308Z,18.90
2022-08-05T01:46:49.813Z,18.95
2022-08-05T01:47:48.812Z,18.84
2022-08-05T01:48:50.051Z,18.89
2022-08-05T01:50:02.159Z,18.84
2022-08-05T01:50:51.340Z,18.86
2022-08-05T01:51:51.763Z,18.84
2022-08-05T01:52:49.646Z,18.78
2022-08-05T01:53:58.004Z,18.86
2022-08-05T01:54:52.714Z,18.84
2022-08-05T01:55:48.704Z,18.81
2022-08-05T01:58:11.651Z,18.80
2022-08-05T01:58:12.660Z,18.88
2022-08-05T01:58:50.137Z,18.92
2022-08-05T01:59:48.689Z,18.81
2022-08-05T02:00:48.654Z,18.80
2022-08-05T02:01:48.678Z,18.84
2022-08-05T02:02:54.415Z,18.81
2022-08-05T02:03:49.625Z,18.71
2022-08-05T02:04:49.555Z,18.75
2022-08-05T02:05:48.600Z,18.63
2022-08-05T02:06:48.588Z,18.66
2022-08-05T02:07:59.903Z,18.77
2022-08-05T02:08:58.576Z,18.74
2022-08-05T02:09:49.592Z,18.70
2022-08-05T02:10:48.547Z,18.63
2022-08-05T02:11:52.302Z,18.63
2022-08-05T02:12:51.015Z,18.59
2022-08-05T02:13:53.413Z,18.60
2022-08-05T02:14:48.499Z,18.59
2022-08-05T02:15:48.494Z,18.59
2022-08-05T02:16:53.144Z,18.73
2022-08-05T02:18:32.992Z,18.65
2022-08-05T02:18:49.456Z,18.70
2022-08-05T02:19:48.441Z,18.86
2022-08-05T02:20:48.450Z,18.81
2022-08-05T02:21:49.239Z,18.75
2022-08-05T02:22:48.423Z,18.77
2022-08-05T02:23:48.604Z,18.73
2022-08-05T02:24:51.452Z,18.71
2022-08-05T02:25:49.025Z,18.70
2022-08-05T02:26:54.002Z,18.77
2022-08-05T02:27:57.943Z,18.62
2022-08-05T02:28:48.350Z,18.65
2022-08-05T02:29:58.830Z,18.70
2022-08-05T02:30:54.093Z,18.73
2022-08-05T02:31:49.315Z,18.75
2022-08-05T02:32:48.308Z,18.71
2022-08-05T02:33:48.404Z,18.80
2022-08-05T02:34:54.969Z,18.81
2022-08-05T02:35:56.217Z,18.81
2022-08-05T02:36:49.263Z,18.86
2022-08-05T02:37:54.154Z,18.86
2022-08-05T02:38:53.356Z,18.81
2022-08-05T02:39:51.494Z,18.88
2022-08-05T02:40:48.242Z,18.98
2022-08-05T02:42:00.940Z,19.04
2022-08-05T02:42:52.656Z,19.02
2022-08-05T02:44:06.615Z,18.98
2022-08-05T02:44:49.185Z,18.90
2022-08-05T02:45:52.164Z,18.95
2022-08-05T02:46:58.780Z,18.98
2022-08-05T02:48:07.476Z,18.93
2022-08-05T02:48:49.126Z,18.89
2022-08-05T02:49:48.118Z,18.86
2022-08-05T02:50:48.446Z,18.90
2022-08-05T02:52:02.944Z,18.95
2022-08-05T02:52:49.080Z,18.88
2022-08-05T02:53:48.066Z,18.92
2022-08-05T02:54:52.194Z,18.86
2022-08-05T02:55:54.168Z,18.88
2022-08-05T02:56:49.073Z,18.89
2022-08-05T02:58:11.605Z,18.90
2022-08-05T02:58:51.658Z,18.89
2022-08-05T02:59:50.614Z,18.90
2022-08-05T03:00:47.993Z,18.90
2022-08-05T03:01:48.032Z,18.83
2022-08-05T03:02:47.992Z,18.77
2022-08-05T03:04:02.907Z,18.77
2022-08-05T03:04:48.947Z,18.77
2022-08-05T03:06:54.000Z,18.75
2022-08-05T03:06:55.330Z,18.80
2022-08-05T03:08:06.660Z,18.88
2022-08-05T03:08:48.907Z,18.86
2022-08-05T03:09:51.653Z,18.83
2022-08-05T03:11:02.332Z,18.84
2022-08-05T03:11:57.170Z,18.81
2022-08-05T03:12:48.880Z,18.78
2022-08-05T03:13:51.581Z,18.86
2022-08-05T03:14:48.837Z,18.80
2022-08-05T03:15:47.833Z,18.81
2022-08-05T03:16:47.814Z,18.81
2022-08-05T03:17:47.814Z,18.86
2022-08-05T03:18:47.792Z,18.88
2022-08-05T03:19:47.790Z,18.84
2022-08-05T03:20:48.964Z,18.81
2022-08-05T03:21:48.705Z,18.86
2022-08-05T03:22:49.998Z,18.89
2022-08-05T03:23:47.762Z,18.86
2022-08-05T03:24:50.764Z,18.88
2022-08-05T03:26:30.164Z,18.81
2022-08-05T03:26:49.305Z,18.75
2022-08-05T03:27:59.276Z,18.71
2022-08-05T03:28:48.699Z,18.77
2022-08-05T03:30:08.445Z,18.71
2022-08-05T03:30:48.671Z,18.75
2022-08-05T03:31:56.759Z,18.70
2022-08-05T03:32:47.643Z,18.73
2022-08-05T03:33:52.717Z,18.63
2022-08-05T03:34:51.055Z,18.68
2022-08-05T03:35:47.618Z,18.62
2022-08-05T03:36:47.603Z,18.55
2022-08-05T03:37:47.619Z,18.55
2022-08-05T03:38:53.450Z,18.55
2022-08-05T03:39:59.433Z,18.52
2022-08-05T03:40:48.949Z,18.47
2022-08-05T03:41:47.557Z,18.52
2022-08-05T03:42:52.110Z,18.47
2022-08-05T03:44:08.461Z,18.47
2022-08-05T03:44:48.520Z,18.43
2022-08-05T03:45:58.289Z,18.52
2022-08-05T03:46:48.492Z,18.41
2022-08-05T03:47:47.482Z,18.53
2022-08-05T03:48:47.487Z,18.50
2022-08-05T03:49:51.566Z,18.45
2022-08-05T03:50:47.455Z,18.38
2022-08-05T03:52:38.562Z,18.28
2022-08-05T03:55:34.301Z,18.31
2022-08-05T03:55:50.442Z,18.33
2022-08-05T03:55:51.989Z,18.23
2022-08-05T03:56:05.949Z,18.37
2022-08-05T03:56:49.888Z,18.41
2022-08-05T03:57:47.615Z,18.41
2022-08-05T03:58:47.356Z,18.44
2022-08-05T03:59:54.928Z,18.43
2022-08-05T04:00:51.388Z,18.49
2022-08-05T04:01:47.421Z,18.45
2022-08-05T04:02:52.100Z,18.49
2022-08-05T04:04:09.781Z,18.45
2022-08-05T04:04:48.299Z,18.53
2022-08-05T04:05:47.293Z,18.50
2022-08-05T04:06:47.778Z,18.45
2022-08-05T04:07:57.629Z,18.38
2022-08-05T04:08:48.587Z,18.41
2022-08-05T04:09:53.100Z,18.40
2022-08-05T04:10:48.224Z,18.40
2022-08-05T04:11:50.707Z,18.45
2022-08-05T04:12:48.216Z,18.40
2022-08-05T04:13:50.611Z,18.50
2022-08-05T04:14:48.205Z,18.44
2022-08-05T04:16:03.073Z,18.45
2022-08-05T04:16:48.162Z,18.47
2022-08-05T04:17:57.181Z,18.41
2022-08-05T04:18:48.132Z,18.40
2022-08-05T04:19:54.295Z,18.41
2022-08-05T04:20:48.125Z,18.41
2022-08-05T04:22:09.916Z,18.40
2022-08-05T04:22:48.091Z,18.35
2022-08-05T04:24:00.267Z,18.31
2022-08-05T04:24:52.320Z,18.40
2022-08-05T04:25:57.957Z,18.38
2022-08-05T04:26:48.045Z,18.37
2022-08-05T04:27:58.115Z,18.44
2022-08-05T04:28:51.336Z,18.38
2022-08-05T04:29:47.021Z,18.40
2022-08-05T04:30:47.009Z,18.44
2022-08-05T04:31:48.272Z,18.34
2022-08-05T04:32:46.975Z,18.41
2022-08-05T04:34:17.482Z,18.38
2022-08-05T04:34:47.958Z,18.40
2022-08-05T04:36:09.492Z,18.40
2022-08-05T04:36:49.706Z,18.38
2022-08-05T04:38:00.870Z,18.49
2022-08-05T04:38:51.085Z,18.52
2022-08-05T04:39:46.981Z,18.55
2022-08-05T04:40:47.902Z,18.53
2022-08-05T04:41:48.285Z,18.59
2022-08-05T04:42:46.882Z,18.55
2022-08-05T04:43:52.141Z,18.55
2022-08-05T04:44:46.845Z,18.47
2022-08-05T04:45:48.310Z,18.41
2022-08-05T04:46:47.032Z,18.43
2022-08-05T04:47:47.274Z,18.44
2022-08-05T04:48:46.822Z,18.37
2022-08-05T04:50:02.801Z,18.38
2022-08-05T04:51:03.774Z,18.29
2022-08-05T04:51:47.769Z,18.31
2022-08-05T04:52:46.773Z,18.28
2022-08-05T04:53:46.749Z,18.33
2022-08-05T04:54:46.737Z,18.34
2022-08-05T04:56:00.098Z,18.28
2022-08-05T04:56:47.719Z,18.35
2022-08-05T04:57:47.989Z,18.34
2022-08-05T04:58:46.689Z,18.38
2022-08-05T04:59:47.947Z,18.37
2022-08-05T05:00:46.707Z,18.49
2022-08-05T05:02:35.012Z,18.40
2022-08-05T05:02:47.757Z,18.41
2022-08-05T05:03:46.662Z,18.38
2022-08-05T05:04:47.882Z,18.43
2022-08-05T05:06:39.153Z,18.37
2022-08-05T05:06:51.848Z,18.45
2022-08-05T05:07:56.039Z,18.43
2022-08-05T05:08:50.135Z,18.47
2022-08-05T05:09:46.593Z,18.47
2022-08-05T05:10:55.739Z,18.41
2022-08-05T05:11:55.431Z,18.40
2022-08-05T05:12:47.553Z,18.33
2022-08-05T05:13:46.565Z,18.35
2022-08-05T05:14:50.802Z,18.44
2022-08-05T05:15:57.107Z,18.44
2022-08-05T05:16:47.492Z,18.44
2022-08-05T05:17:55.738Z,18.41
2022-08-05T05:19:09.041Z,18.38
2022-08-05T05:19:47.636Z,18.47
2022-08-05T05:20:46.451Z,18.45
2022-08-05T05:21:46.559Z,18.53
2022-08-05T05:22:46.443Z,18.55
2022-08-05T05:24:03.686Z,18.52
2022-08-05T05:24:56.987Z,18.49
2022-08-05T05:25:47.840Z,18.49
2022-08-05T05:26:46.556Z,18.55
2022-08-05T05:27:53.761Z,18.56
2022-08-05T05:28:47.357Z,18.56
2022-08-05T05:30:05.015Z,18.55
2022-08-05T05:30:49.584Z,18.50
2022-08-05T05:31:46.682Z,18.52
2022-08-05T05:32:46.384Z,18.43
2022-08-05T05:33:59.294Z,18.40
2022-08-05T05:34:47.291Z,18.41
2022-08-05T05:35:46.287Z,18.37
2022-08-05T05:36:47.173Z,18.40
2022-08-05T05:37:59.857Z,18.41
2022-08-05T05:38:47.280Z,18.44
2022-08-05T05:39:46.321Z,18.33
2022-08-05T05:40:49.933Z,18.31
2022-08-05T05:41:54.527Z,18.37
2022-08-05T05:42:47.153Z,18.37
2022-08-05T05:43:58.563Z,18.34
2022-08-05T05:44:47.199Z,18.26
2022-08-05T05:45:48.157Z,18.29
2022-08-05T05:46:46.189Z,18.29
2022-08-05T05:48:07.007Z,18.26
2022-08-05T05:48:48.227Z,18.29
2022-08-05T05:49:46.144Z,18.29
2022-08-05T05:50:47.168Z,18.15
2022-08-05T05:51:50.038Z,18.15
2022-08-05T05:52:46.603Z,18.16
2022-08-05T05:53:57.522Z,18.10
2022-08-05T05:54:50.197Z,18.08
2022-08-05T05:55:52.428Z,18.07
2022-08-05T05:56:47.380Z,17.92
2022-08-05T05:57:52.146Z,17.95
2022-08-05T05:58:47.055Z,17.97
2022-08-05T05:59:46.019Z,17.89
2022-08-05T06:00:46.009Z,17.83
2022-08-05T06:01:57.169Z,17.87
2022-08-05T06:02:46.982Z,17.89
2022-08-05T06:04:00.815Z,17.94
2022-08-05T06:04:49.102Z,17.92
2022-08-05T06:05:45.967Z,18.03
2022-08-05T06:06:47.744Z,18.03
2022-08-05T06:08:01.486Z,18.07
2022-08-05T06:08:49.237Z,18.03
2022-08-05T06:10:00.124Z,18.00
2022-08-05T06:10:52.352Z,18.04
2022-08-05T06:12:01.191Z,17.94
2022-08-05T06:12:46.870Z,17.95
2022-08-05T06:13:54.249Z,17.85
2022-08-05T06:14:45.846Z,17.83
2022-08-05T06:16:30.748Z,17.83
2022-08-05T06:16:46.840Z,17.89
2022-08-05T06:17:52.652Z,17.87
2022-08-05T06:18:45.802Z,17.90
2022-08-05T06:19:45.825Z,17.85
2022-08-05T06:20:47.769Z,17.89
2022-08-05T06:21:49.702Z,17.85
2022-08-05T06:22:46.278Z,17.82
2022-08-05T06:23:45.750Z,17.80
2022-08-05T06:24:48.219Z,17.78
2022-08-05T06:26:12.181Z,17.76
2022-08-05T06:26:52.374Z,17.59
2022-08-05T06:28:11.369Z,17.64
2022-08-05T06:28:46.703Z,17.64
2022-08-05T06:29:53.379Z,17.63
2022-08-05T06:30:46.689Z,17.56
2022-08-05T06:31:53.520Z,17.60
2022-08-05T06:32:46.739Z,17.67
2022-08-05T06:34:06.817Z,17.68
2022-08-05T06:34:47.039Z,17.79
2022-08-05T06:36:07.958Z,17.72
2022-08-05T06:36:57.702Z,17.71
2022-08-05T06:37:58.038Z,17.71
2022-08-05T06:38:47.083Z,17.74
2022-08-05T06:39:45.707Z,17.76
2022-08-05T06:40:45.559Z,17.78
2022-08-05T06:41:45.561Z,17.79
2022-08-05T06:42:45.591Z,17.82
2022-08-05T06:43:58.457Z,17.82
2022-08-05T06:44:46.538Z,17.79
2022-08-05T06:46:06.944Z,17.85
2022-08-05T06:46:46.506Z,17.82
2022-08-05T06:48:36.175Z,17.83
2022-08-05T06:48:56.298Z,17.83
2022-08-05T06:50:01.222Z,17.82
2022-08-05T06:50:46.458Z,17.79
2022-08-05T06:51:45.450Z,17.82
2022-08-05T06:52:45.428Z,17.79
2022-08-05T06:53:53.639Z,17.79
2022-08-05T06:54:46.423Z,17.86
2022-08-05T06:55:46.394Z,17.94
2022-08-05T06:56:54.641Z,17.87
2022-08-05T06:58:03.446Z,17.80
2022-08-05T06:58:46.723Z,17.80
2022-08-05T06:59:48.511Z,17.86
2022-08-05T07:00:46.378Z,17.82
2022-08-05T07:01:46.165Z,17.83
2022-08-05T07:02:45.315Z,17.82
2022-08-05T07:03:45.309Z,17.79
2022-08-05T07:04:45.311Z,17.74
2022-08-05T07:05:46.348Z,17.78
2022-08-05T07:06:45.272Z,17.82
2022-08-05T07:07:45.391Z,17.79
2022-08-05T07:08:47.478Z,17.78
2022-08-05T07:09:46.257Z,17.79
2022-08-05T07:10:52.518Z,17.79
2022-08-05T07:11:49.579Z,17.72
2022-08-05T07:12:49.093Z,17.74
2022-08-05T07:13:59.491Z,17.72
2022-08-05T07:14:46.188Z,17.71
2022-08-05T07:16:01.623Z,17.79
2022-08-05T07:18:02.424Z,17.74
2022-08-05T07:18:08.486Z,17.82
2022-08-05T07:18:47.729Z,17.72
2022-08-05T07:20:31.444Z,17.74
2022-08-05T07:20:46.114Z,17.70
2022-08-05T07:21:59.845Z,17.74
2022-08-05T07:22:46.090Z,17.85
2022-08-05T07:23:50.040Z,17.79
2022-08-05T07:24:52.509Z,17.79
2022-08-05T07:25:56.298Z,17.80
2022-08-05T07:26:46.179Z,17.78
2022-08-05T07:27:58.527Z,17.76
2022-08-05T07:28:46.031Z,17.76
2022-08-05T07:30:22.172Z,17.72
2022-08-05T07:30:50.292Z,17.70
2022-08-05T07:31:55.107Z,17.72
2022-08-05T07:32:45.997Z,17.71
2022-08-05T07:33:44.991Z,17.72
2022-08-05T07:34:44.960Z,17.74
2022-08-05T07:36:04.527Z,17.59
2022-08-05T07:36:45.947Z,17.57
2022-08-05T07:37:47.327Z,17.49
2022-08-05T07:38:44.949Z,17.57
2022-08-05T07:40:04.324Z,17.59
2022-08-05T07:40:45.968Z,17.59
2022-08-05T07:42:13.251Z,17.48
2022-08-05T07:42:45.882Z,17.48
2022-08-05T07:43:44.891Z,17.52
2022-08-05T07:44:46.300Z,17.59
2022-08-05T07:45:57.565Z,17.52
2022-08-05T07:46:45.974Z,17.57
2022-08-05T07:47:44.828Z,17.60
2022-08-05T07:49:02.776Z,17.59
2022-08-05T07:49:54.550Z,17.63
2022-08-05T07:50:45.780Z,17.52
2022-08-05T07:51:53.154Z,17.54
2022-08-05T07:52:45.758Z,17.54
2022-08-05T07:53:49.914Z,17.51
2022-08-05T07:54:47.576Z,17.57
2022-08-05T07:56:05.616Z,17.63
2022-08-05T07:57:02.579Z,17.70
2022-08-05T07:57:55.253Z,17.70
2022-08-05T07:58:57.363Z,17.72
2022-08-05T07:59:46.813Z,17.79
2022-08-05T08:00:44.705Z,17.74
2022-08-05T08:01:52.139Z,17.79
2022-08-05T08:03:14.834Z,17.85
2022-08-05T08:03:45.692Z,17.86
2022-08-05T08:04:44.936Z,17.87
2022-08-05T08:05:49.518Z,17.92
2022-08-05T08:06:45.629Z,17.82
2022-08-05T08:07:59.745Z,17.87
2022-08-05T08:08:45.646Z,17.90
2022-08-05T08:09:44.587Z,17.82
2022-08-05T08:10:44.559Z,17.83
2022-08-05T08:11:47.458Z,17.78
2022-08-05T08:12:49.530Z,17.86
2022-08-05T08:13:49.483Z,17.80
2022-08-05T08:14:46.745Z,17.80
2022-08-05T08:16:35.676Z,17.79
2022-08-05T08:16:51.123Z,17.71
2022-08-05T08:17:49.734Z,17.76
2022-08-05T08:18:50.176Z,17.83
2022-08-05T08:20:22.214Z,17.89
2022-08-05T08:21:02.939Z,17.85
2022-08-05T08:21:45.436Z,17.97
2022-08-05T08:22:44.538Z,17.95
2022-08-05T08:24:02.442Z,18.04
2022-08-05T08:24:51.405Z,18.03
2022-08-05T08:26:00.108Z,18.03
2022-08-05T08:26:45.382Z,18.05
2022-08-05T08:27:47.365Z,18.08
2022-08-05T08:29:02.168Z,18.00
2022-08-05T08:30:05.066Z,18.07
2022-08-05T08:30:47.808Z,18.03
2022-08-05T08:31:44.325Z,18.07
2022-08-05T08:32:44.320Z,18.07
2022-08-05T08:33:44.306Z,18.07
2022-08-05T08:34:44.299Z,18.10
2022-08-05T08:35:53.929Z,18.10
2022-08-05T08:36:47.584Z,18.08
2022-08-05T08:37:45.300Z,18.10
2022-08-05T08:38:53.077Z,18.07
2022-08-05T08:39:49.695Z,18.08
2022-08-05T08:40:50.507Z,18.03
2022-08-05T08:41:50.764Z,18.08
2022-08-05T08:42:50.446Z,18.07
2022-08-05T08:45:19.497Z,18.13
2022-08-05T08:45:19.740Z,18.10
2022-08-05T08:45:45.201Z,18.23
2022-08-05T08:46:44.174Z,18.22
2022-08-05T08:48:05.879Z,18.25
2022-08-05T08:49:07.764Z,18.23
2022-08-05T08:50:14.162Z,18.23
2022-08-05T08:51:03.115Z,18.31
2022-08-05T08:52:03.671Z,18.29
2022-08-05T08:52:47.431Z,18.26
2022-08-05T08:53:45.453Z,18.35
2022-08-05T08:54:44.084Z,18.43
2022-08-05T08:56:03.479Z,18.44
2022-08-05T08:56:47.748Z,18.49
2022-08-05T08:57:58.021Z,18.49
2022-08-05T08:58:47.912Z,18.47
2022-08-05T08:59:47.247Z,18.53
2022-08-05T09:00:44.492Z,18.55
2022-08-05T09:01:44.151Z,18.52
2022-08-05T09:02:44.993Z,18.55
2022-08-05T09:03:45.254Z,18.58
2022-08-05T09:04:58.154Z,18.52
2022-08-05T09:06:09.071Z,18.62
2022-08-05T09:06:44.973Z,18.70
2022-08-05T09:07:57.588Z,18.73
2022-08-05T09:08:44.918Z,18.78
2022-08-05T09:09:43.907Z,18.80
2022-08-05T09:10:43.907Z,18.92
2022-08-05T09:11:52.997Z,18.92
2022-08-05T09:12:44.873Z,18.99
2022-08-05T09:14:09.323Z,18.98
2022-08-05T09:14:56.989Z,18.86
2022-08-05T09:15:44.918Z,18.92
2022-08-05T09:16:48.778Z,18.99
2022-08-05T09:17:49.350Z,18.89
2022-08-05T09:18:43.915Z,18.92
2022-08-05T09:20:01.507Z,18.86
2022-08-05T09:20:44.798Z,18.78
2022-08-05T09:22:25.078Z,18.68
2022-08-05T09:22:51.899Z,18.78
2022-08-05T09:23:44.757Z,18.80
2022-08-05T09:24:43.751Z,18.95
2022-08-05T09:26:01.308Z,18.89
2022-08-05T09:26:44.749Z,19.00
2022-08-05T09:28:03.799Z,19.07
2022-08-05T09:28:44.710Z,19.11
2022-08-05T09:29:47.650Z,19.14
2022-08-05T09:30:43.679Z,19.02
2022-08-05T09:32:57.492Z,19.07
2022-08-05T09:33:57.097Z,19.19
2022-08-05T09:34:57.074Z,19.22
2022-08-05T09:35:57.070Z,19.24
2022-08-05T09:36:59.718Z,19.47
2022-08-05T09:38:17.720Z,19.56
2022-08-05T09:38:58.170Z,19.69
2022-08-05T09:39:57.106Z,19.82
2022-08-05T09:40:57.015Z,19.85
2022-08-05T09:41:56.992Z,19.88
2022-08-05T09:42:56.988Z,19.82
2022-08-05T09:43:56.991Z,19.84
2022-08-05T09:45:03.311Z,19.86
2022-08-05T09:46:06.298Z,19.81
2022-08-05T09:46:58.177Z,19.70
2022-08-05T09:47:57.544Z,19.67
2022-08-05T09:49:07.182Z,19.73
2022-08-05T09:50:02.372Z,19.66
2022-08-05T09:50:57.902Z,19.82
2022-08-05T09:51:56.887Z,19.70
2022-08-05T09:52:56.889Z,19.70
2022-08-05T09:53:59.331Z,19.81
2022-08-05T09:54:56.871Z,19.73
2022-08-05T09:56:03.923Z,19.70
2022-08-05T09:56:57.921Z,19.66
2022-08-05T09:57:58.425Z,19.74
2022-08-05T09:58:56.834Z,19.70
2022-08-05T09:59:56.796Z,19.59
2022-08-05T10:00:56.820Z,19.56
2022-08-05T10:01:57.759Z,19.51
2022-08-05T10:02:58.278Z,19.56
2022-08-05T10:03:59.485Z,19.56
2022-08-05T10:04:56.760Z,19.62
2022-08-05T10:05:56.735Z,19.63
2022-08-05T10:06:59.009Z,19.63
2022-08-05T10:08:10.648Z,19.62
2022-08-05T10:08:57.698Z,19.64
2022-08-05T10:10:13.823Z,19.59
2022-08-05T10:10:57.683Z,19.66
2022-08-05T10:11:56.662Z,19.70
2022-08-05T10:12:56.655Z,19.82
2022-08-05T10:13:56.643Z,19.81
2022-08-05T10:14:56.644Z,19.81
2022-08-05T10:15:56.629Z,19.88
2022-08-05T10:16:56.611Z,19.91
2022-08-05T10:17:57.677Z,20.00
2022-08-05T10:18:56.601Z,20.00
2022-08-05T10:20:03.753Z,20.03
2022-08-05T10:20:57.567Z,20.06
2022-08-05T10:21:56.558Z,19.99
2022-08-05T10:22:56.560Z,19.92
2022-08-05T10:24:00.401Z,19.92
2022-08-05T10:24:56.539Z,20.07
2022-08-05T10:25:56.523Z,20.11
2022-08-05T10:27:00.234Z,20.18
2022-08-05T10:28:16.818Z,20.26
2022-08-05T10:28:57.486Z,20.34
2022-08-05T10:30:06.358Z,20.29
2022-08-05T10:32:47.342Z,20.26
2022-08-05T10:32:54.586Z,20.29
2022-08-05T10:33:01.338Z,20.29
2022-08-05T10:33:57.432Z,20.39
2022-08-05T10:34:56.433Z,20.43
2022-08-05T10:35:59.781Z,20.43
2022-08-05T10:36:56.400Z,20.56
2022-08-05T10:37:56.390Z,20.59
2022-08-05T10:38:56.439Z,20.55
2022-08-05T10:39:59.385Z,20.66
2022-08-05T10:40:58.068Z,20.70
2022-08-05T10:42:00.728Z,20.72
2022-08-05T10:42:56.334Z,20.77
2022-08-05T10:43:56.310Z,20.84
2022-08-05T10:44:56.302Z,20.85
2022-08-05T10:45:56.319Z,20.84
2022-08-05T10:46:57.290Z,20.85
2022-08-05T10:48:31.695Z,20.78
2022-08-05T10:49:02.764Z,20.87
2022-08-05T10:50:32.065Z,20.87
2022-08-05T10:50:57.260Z,20.99
2022-08-05T10:51:59.914Z,21.17
2022-08-05T10:52:58.774Z,21.30
2022-08-05T10:53:56.203Z,21.18
2022-08-05T10:54:57.294Z,21.24
2022-08-05T10:56:05.508Z,21.21
2022-08-05T10:56:57.381Z,21.39
2022-08-05T10:57:56.154Z,21.22
2022-08-05T10:58:56.163Z,21.22
2022-08-05T11:00:04.098Z,21.18
2022-08-05T11:01:03.104Z,21.18
2022-08-05T11:02:04.642Z,21.22
2022-08-05T11:02:57.174Z,21.17
2022-08-05T11:03:57.119Z,21.27
2022-08-05T11:04:56.104Z,21.25
2022-08-05T11:05:56.074Z,21.30
2022-08-05T11:06:57.486Z,21.21
2022-08-05T11:08:01.761Z,21.25
2022-08-05T11:08:57.040Z,21.27
2022-08-05T11:10:03.934Z,21.22
2022-08-05T11:11:00.929Z,21.27
2022-08-05T11:11:57.013Z,21.22
2022-08-05T11:12:56.047Z,21.21
2022-08-05T11:13:58.199Z,21.14
2022-08-05T11:15:11.937Z,21.11
2022-08-05T11:16:01.279Z,21.07
2022-08-05T11:17:00.168Z,21.00
2022-08-05T11:18:03.828Z,21.02
2022-08-05T11:18:56.928Z,20.99
2022-08-05T11:20:16.575Z,20.95
2022-08-05T11:20:56.911Z,21.02
2022-08-05T11:21:55.898Z,21.02
2022-08-05T11:22:59.174Z,21.00
2022-08-05T11:24:05.409Z,21.09
2022-08-05T11:26:03.477Z,21.20
2022-08-05T11:26:04.789Z,21.35
2022-08-05T11:26:56.837Z,21.32
2022-08-05T11:28:00.654Z,21.20
2022-08-05T11:28:56.825Z,21.43
2022-08-05T11:29:55.808Z,21.43
2022-08-05T11:30:55.797Z,21.42
2022-08-05T11:32:00.413Z,21.66
2022-08-05T11:32:55.776Z,21.77
2022-08-05T11:33:55.779Z,21.96
2022-08-05T11:34:55.750Z,22.25
2022-08-05T11:36:08.053Z,22.23
2022-08-05T11:36:56.797Z,22.00
2022-08-05T11:38:30.467Z,22.07
2022-08-05T11:38:57.590Z,21.96
2022-08-05T11:40:02.872Z,21.95
2022-08-05T11:41:00.803Z,21.95
2022-08-05T11:42:02.219Z,22.02
2022-08-05T11:42:56.662Z,21.89
2022-08-05T11:44:06.292Z,21.88
2022-08-05T11:44:56.638Z,21.69
2022-08-05T11:46:16.137Z,21.83
2022-08-05T11:47:09.379Z,21.72
2022-08-05T11:47:56.609Z,21.73
2022-08-05T11:48:55.606Z,21.83
2022-08-05T11:49:55.611Z,22.00
2022-08-05T11:50:55.578Z,21.96
2022-08-05T11:51:55.566Z,21.95
2022-08-05T11:52:57.880Z,22.00
2022-08-05T11:53:56.193Z,22.04
2022-08-05T11:54:55.792Z,21.98
2022-08-05T11:55:55.521Z,22.00
2022-08-05T11:56:55.509Z,21.83
2022-08-05T11:58:10.356Z,21.79
2022-08-05T11:58:56.519Z,21.76
2022-08-05T11:59:55.506Z,21.61
2022-08-05T12:00:55.476Z,21.62
2022-08-05T12:01:55.461Z,21.62
2022-08-05T12:02:56.608Z,21.50
2022-08-05T12:03:55.584Z,21.42
2022-08-05T12:04:59.238Z,21.48
2022-08-05T12:05:55.406Z,21.46
2022-08-05T12:06:55.401Z,21.39
2022-08-05T12:08:03.381Z,21.25
2022-08-05T12:08:56.377Z,21.12
2022-08-05T12:09:55.368Z,21.05
2022-08-05T12:10:55.363Z,21.09
2022-08-05T12:11:55.353Z,21.17
2022-08-05T12:12:58.318Z,21.11
2022-08-05T12:13:55.327Z,21.22
2022-08-05T12:14:55.306Z,21.17
2022-08-05T12:15:55.965Z,21.22
2022-08-05T12:16:55.286Z,21.39
2022-08-05T12:18:03.287Z,21.35
2022-08-05T12:18:56.266Z,21.69
2022-08-05T12:20:26.158Z,21.75
2022-08-05T12:20:56.266Z,21.85
2022-08-05T12:21:55.231Z,21.98
2022-08-05T12:22:55.241Z,22.15
2022-08-05T12:23:55.213Z,22.30
2022-08-05T12:24:55.198Z,22.48
2022-08-05T12:25:56.650Z,22.66
2022-08-05T12:26:55.218Z,22.62
2022-08-05T12:27:55.167Z,22.73
2022-08-05T12:28:55.158Z,22.76
2022-08-05T12:29:56.969Z,22.85
2022-08-05T12:30:55.143Z,22.85
2022-08-05T12:31:55.352Z,22.91
2022-08-05T12:32:56.277Z,23.09
2022-08-05T12:33:55.103Z,23.13
2022-08-05T12:34:55.119Z,23.25
2022-08-05T12:35:55.130Z,23.46
2022-08-05T12:36:55.064Z,23.43
2022-08-05T12:37:55.579Z,23.31
2022-08-05T12:38:55.066Z,23.08
2022-08-05T12:39:55.097Z,23.08
2022-08-05T12:40:56.037Z,22.93
2022-08-05T12:41:58.118Z,22.81
2022-08-05T12:42:54.997Z,22.69
2022-08-05T12:43:55.005Z,22.57
2022-08-05T12:44:54.975Z,22.55
2022-08-05T12:45:54.972Z,22.44
2022-08-05T12:46:54.968Z,22.36
2022-08-05T12:48:16.986Z,22.23
2022-08-05T12:48:55.930Z,22.07
2022-08-05T12:50:04.165Z,22.08
2022-08-05T12:50:55.923Z,22.11
2022-08-05T12:52:12.422Z,22.15
2022-08-05T12:52:55.886Z,22.22
2022-08-05T12:53:55.871Z,22.45